Langston, Oklahoma
Current Conditions -  °F | °C
As of 11:53 AM on Saturday 25 Oct 2014 (Local Time) from KGOK Reporting Station
Clear Clear  
Wind Chill: 79°   Ceiling: Unl
Heat Index: 80°   Visibility: 10mi
Dew Point: 60°   Wind: 7mph
Humidity: 52%   Direction: 250°WSW
Pressure: 30.08"   Gusts: NA
Location:  35.95°N, 97.26°W
Report Text: KGOK 251653Z AUTO 25006KT 10SM CLR 26/16 A3008 RMK AO2 SLP179 T02610156 $
Loading
Personal Weather Stations






























Interactive Weather Map
Tropical Storm Tracking
New forecast layout! Learn more

10-Day Weather Forecast

Advertisements
Track Severe Weather on mobile